Flight Track Log - Related Links

Times and Time Zones

All times are in EDT time to prevent confusion due to time zone crossing. See the FDX1545 flight status page for this flight to view local times or setup timezone preferences in your user account.

Time Position Orientation Groundspeed Altitude Reporting Facility
EDT Latitude Longitude Course Direction KTS MPH feet Rate Location/Type
Wed 04:11:05 AM 35.0167 -89.9833 195° South 171 197 1,300  Level KMEM
Wed 04:12:11 AM 34.9667 -90.0000 195° South 208 239 2,900 2,045 Climbing KMEM
Wed 04:13:17 AM 34.9333 -90.0833 244° Southwest 275 316 5,800 2,952 Climbing KMEM
Wed 04:14:17 AM 34.9500 -90.1667 284° West 275 316 9,100 2,634 Climbing KMEM
Wed 04:15:20 AM 34.9678 -90.2886 280° West 313 360 11,200 2,049 Climbing Memphis Center
Wed 04:16:20 AM 34.9739 -90.4103 274° West 357 411 13,300 2,650 Climbing Memphis Center
Wed 04:17:20 AM 34.9717 -90.5447 269° West 389 448 16,500 2,800 Climbing Memphis Center
Wed 04:18:20 AM 34.9756 -90.6814 272° West 402 463 18,900 2,400 Climbing Memphis Center
Wed 04:19:20 AM 34.9961 -90.8211 280° West 422 486 21,300 2,050 Climbing Memphis Center
Wed 04:20:20 AM 35.0394 -90.9606 291° West 427 491 23,000 1,500 Climbing Memphis Center
Wed 04:21:20 AM 35.0761 -91.0853 290° West 441 507 24,300 1,600 Climbing Memphis Center
Wed 04:22:20 AM 35.1192 -91.2278 290° West 449 517 26,200 1,650 Climbing Memphis Center
Wed 04:23:20 AM 35.1639 -91.3756 290° West 449 517 27,600 1,700 Climbing Memphis Center
Wed 04:24:20 AM 35.2064 -91.5211 290° West 449 517 29,600 2,000 Climbing Memphis Center
Wed 04:25:20 AM 35.2508 -91.6664 291° West 449 517 31,600 2,150 Climbing Memphis Center
Wed 04:26:20 AM 35.2911 -91.8044 290° West 449 517 33,900 1,200 Climbing Memphis Center
Wed 04:27:20 AM 35.3311 -91.9400 290° West 439 505 34,000 50 Climbing Memphis Center
Wed 04:28:20 AM 35.3711 -92.0708 291° West 425 489 34,000  Level Memphis Center
Wed 04:29:20 AM 35.4089 -92.2064 289° West 420 483 34,000  Level Memphis Center
Wed 04:30:20 AM 35.4464 -92.3372 289° West 420 483 34,000  Level Memphis Center
Wed 04:31:20 AM 35.4858 -92.4733 290° West 420 483 34,000  Level Memphis Center
Wed 04:32:20 AM 35.5292 -92.6225 290° West 425 489 34,000  Level Memphis Center
Wed 04:33:20 AM 35.5683 -92.7614 289° West 430 495 34,000  Level Memphis Center
Wed 04:34:20 AM 35.6072 -92.8978 289° West 430 495 34,000  Level Memphis Center
Wed 04:35:20 AM 35.6461 -93.0369 289° West 425 489 34,000  Level Memphis Center
Wed 04:36:20 AM 35.6808 -93.1608 289° West 419 482 34,000  Level Memphis Center
Wed 04:37:20 AM 35.7194 -93.2950 290° West 419 482 34,000  Level Memphis Center
Wed 04:38:20 AM 35.7581 -93.4319 289° West 419 482 34,000  Level Memphis Center
Wed 04:39:20 AM 35.7961 -93.5717 289° West 419 482 34,000  Level Memphis Center
Wed 04:40:20 AM 35.8344 -93.7061 289° West 425 489 34,000  Level Memphis Center
Wed 04:41:20 AM 35.8703 -93.8433 288° West 425 489 34,000  Level Memphis Center
Wed 04:42:20 AM 35.9100 -93.9808 290° West 425 489 34,000  Level Memphis Center
Wed 04:43:20 AM 35.9475 -94.1211 288° West 430 495 34,000  Level Memphis Center
Wed 04:44:20 AM 35.9828 -94.2636 287° West 430 495 34,000  Level Memphis Center
Wed 04:45:20 AM 36.0242 -94.4042 290° West 430 495 34,000  Level Memphis Center
Wed 04:46:20 AM 36.0611 -94.5472 288° West 430 495 34,000  Level Memphis Center
Wed 04:48:40 AM 36.1486 -94.8644 289° West 436 502 34,000  Level Kansas City Center
Wed 04:49:40 AM 36.1864 -95.0069 288° West 435 501 34,000  Level Kansas City Center
Wed 04:50:41 AM 36.2231 -95.1472 288° West 436 502 34,000  Level Kansas City Center
Wed 04:51:41 AM 36.2600 -95.2886 288° West 435 501 34,000  Level Kansas City Center
Wed 04:52:42 AM 36.2967 -95.4317 288° West 436 502 34,000  Level Kansas City Center
Wed 04:53:43 AM 36.3331 -95.5742 288° West 435 501 34,000  Level Kansas City Center
Wed 04:54:43 AM 36.3692 -95.7158 288° West 433 498 34,000  Level Kansas City Center
Wed 04:55:44 AM 36.3883 -95.8797 278° West 428 493 34,000  Level Kansas City Center
Wed 05:00:47 AM 36.4614 -96.6244 281° West 434 499 34,000  Level Kansas City Center
Wed 05:01:17 AM 36.4750 -96.7130 278° West 34,000  Level FlightAware ADS-B
Wed 05:01:47 AM 36.4842 -96.7767 281° West 434 499 34,000  Level Kansas City Center
Wed 05:02:48 AM 36.5094 -96.9233 282° West 435 501 34,000  Level Kansas City Center
Wed 05:03:49 AM 36.5322 -97.0706 281° West 436 502 34,000  Level Kansas City Center
Wed 05:04:49 AM 36.5569 -97.2186 282° West 438 504 34,000  Level Kansas City Center
Wed 05:05:50 AM 36.5803 -97.3700 281° West 443 510 34,000  Level Kansas City Center
Wed 05:06:51 AM 36.6036 -97.5164 281° West 449 517 34,000  Level Kansas City Center
Wed 05:07:00 AM 36.4421 -97.5563 281° West  Level FlightAware Approximate
Wed 05:07:51 AM 36.6264 -97.6681 281° West 448 516 34,000  Level Kansas City Center
Wed 05:08:52 AM 36.6514 -97.8203 282° West 445 512 34,000  Level Kansas City Center
Wed 05:09:52 AM 36.6739 -97.9694 281° West 442 509 34,000  Level Kansas City Center
Wed 05:10:53 AM 36.6961 -98.1186 281° West 440 506 34,000  Level Kansas City Center
Wed 05:11:53 AM 36.7211 -98.2947 280° West 437 503 34,000  Level Kansas City Center
Wed 05:12:54 AM 36.7447 -98.4442 281° West 436 502 34,000  Level Kansas City Center
Wed 05:13:55 AM 36.7572 -98.6011 276° West 451 519 34,000  Level Kansas City Center
Wed 05:14:55 AM 36.7603 -98.7508 272° West 445 512 34,000  Level Kansas City Center
Wed 05:15:56 AM 36.7650 -98.8994 272° West 433 498 34,000  Level Kansas City Center
Wed 05:16:56 AM 36.7711 -99.0531 273° West 442 509 34,000  Level Kansas City Center
Wed 05:17:57 AM 36.7781 -99.1983 273° West 425 489 34,000  Level Kansas City Center
Wed 05:18:58 AM 36.7836 -99.3478 273° West 431 496 34,000  Level Kansas City Center
Wed 05:19:58 AM 36.7919 -99.4936 274° West 424 488 34,000  Level Kansas City Center
Wed 05:20:59 AM 36.7989 -99.6381 273° West 418 481 34,000  Level Kansas City Center
Wed 05:21:59 AM 36.8031 -99.7889 272° West 428 493 34,000  Level Kansas City Center
Wed 05:23:00 AM 36.8100 -99.9364 273° West 427 491 34,000  Level Kansas City Center
Wed 05:24:00 AM 36.8156 -100.0919 273° West 432 497 34,000  Level Kansas City Center
Wed 05:25:01 AM 36.8356 -100.2322 280° West 431 496 34,000  Level Kansas City Center
Wed 05:26:01 AM 36.8594 -100.3975 280° West 431 496 34,000  Level Kansas City Center
Wed 05:27:02 AM 36.8803 -100.5419 280° West 437 503 34,000  Level Kansas City Center
Wed 05:28:03 AM 36.9000 -100.6883 280° West 443 510 34,000  Level Kansas City Center
Wed 05:29:03 AM 36.9231 -100.8578 280° West 442 509 34,000  Level Kansas City Center
Wed 05:30:04 AM 36.9433 -101.0022 280° West 440 506 34,000  Level Kansas City Center
Wed 05:31:04 AM 36.9631 -101.1472 280° West 440 506 34,000  Level Kansas City Center
Wed 05:32:05 AM 36.9828 -101.2911 280° West 438 504 34,000  Level Kansas City Center
Wed 05:33:05 AM 37.0047 -101.4581 279° West 436 502 34,000  Level Kansas City Center
Wed 05:34:06 AM 37.0239 -101.6031 279° West 438 504 34,000  Level Kansas City Center
Wed 05:35:06 AM 37.0425 -101.7447 279° West 434 499 34,000  Level Kansas City Center
Wed 05:36:07 AM 37.0642 -101.9119 279° West 435 501 34,000 290 Level Albuquerque Center
Wed 05:42:00 AM 37.1728 -102.7920 279° West 428 493 36,000 313 Climbing FlightAware ADS-B
Wed 05:42:30 AM 37.1817 -102.8660 279° West 436 502 36,000  Level FlightAware ADS-B
Wed 05:43:00 AM 37.1904 -102.9390 279° West 436 502 36,000  Level FlightAware ADS-B
Wed 05:43:30 AM 37.1992 -103.0130 279° West 419 482 36,000  Level FlightAware ADS-B
Wed 05:44:00 AM 37.2078 -103.0860 278° West 406 467 36,000  Level FlightAware ADS-B
Wed 05:44:31 AM 37.2166 -103.1610 278° West 420 483 36,000  Level FlightAware ADS-B
Wed 05:45:01 AM 37.2251 -103.2340 278° West 427 491 36,000  Level FlightAware ADS-B
Wed 05:45:31 AM 37.2339 -103.3080 279° West 440 506 36,000  Level FlightAware ADS-B
Wed 05:46:09 AM 37.2443 -103.4000 278° West 430 495 36,000  Level FlightAware ADS-B
Wed 05:46:40 AM 37.2528 -103.4730 278° West 418 481 36,000  Level FlightAware ADS-B
Wed 05:47:11 AM 37.2612 -103.5480 278° West 410 472 36,000  Level FlightAware ADS-B
Wed 05:47:47 AM 37.2709 -103.6350 278° West 422 486 36,000  Level FlightAware ADS-B
Wed 05:48:26 AM 37.2819 -103.7310 278° West 426 490 36,000  Level FlightAware ADS-B
Wed 05:49:07 AM 37.2931 -103.8300 278° West 435 501 36,000  Level FlightAware ADS-B
Wed 05:49:38 AM 37.3015 -103.9060 278° West 435 501 36,000  Level FlightAware ADS-B
Wed 05:50:08 AM 37.3096 -103.9790 278° West 431 496 36,000  Level FlightAware ADS-B
Wed 05:50:41 AM 37.3183 -104.0600 278° West 426 490 36,000  Level FlightAware ADS-B
Wed 05:51:18 AM 37.3280 -104.1510 278° West 427 491 36,000  Level FlightAware ADS-B
Wed 05:51:49 AM 37.3362 -104.2260 278° West 438 504 36,000  Level FlightAware ADS-B
Wed 05:52:35 AM 37.3485 -104.3390 278° West 425 489 36,000  Level FlightAware ADS-B
Wed 05:53:05 AM 37.3564 -104.4150 277° West 421 484 36,000  Level FlightAware ADS-B
Wed 05:53:52 AM 37.3688 -104.5310 278° West 423 487 36,000  Level FlightAware ADS-B
Wed 05:56:18 AM 37.4068 -104.8990 278° West 434 499 36,000  Level FlightAware ADS-B
Wed 05:56:48 AM 37.4146 -104.9760 277° West 445 512 36,000  Level FlightAware ADS-B
Wed 05:57:18 AM 37.4222 -105.0520 277° West 442 509 36,000  Level FlightAware ADS-B
Wed 05:57:52 AM 37.4306 -105.1370 277° West 437 503 36,000  Level FlightAware ADS-B
Wed 05:58:22 AM 37.4385 -105.2150 277° West 450 518 36,000  Level FlightAware ADS-B
Wed 05:58:52 AM 37.4460 -105.2920 277° West 452 520 36,000  Level FlightAware ADS-B
Wed 05:59:24 AM 37.4538 -105.3700 277° West 423 487 36,000  Level FlightAware ADS-B
Wed 05:59:54 AM 37.4615 -105.4490 277° West 442 509 36,000  Level FlightAware ADS-B
Wed 06:00:24 AM 37.4687 -105.5250 277° West 433 498 36,000  Level FlightAware ADS-B
Wed 06:00:58 AM 37.4769 -105.6120 277° West 446 513 36,000  Level FlightAware ADS-B
Wed 06:01:28 AM 37.4843 -105.6880 277° West 437 503 36,000  Level FlightAware ADS-B
Wed 06:01:58 AM 37.4917 -105.7650 277° West 441 507 36,000  Level FlightAware ADS-B
Wed 06:02:28 AM 37.4989 -105.8420 277° West 449 517 36,000  Level FlightAware ADS-B
Wed 06:02:59 AM 37.5061 -105.9210 277° West 449 517 36,000  Level FlightAware ADS-B
Wed 06:03:30 AM 37.5137 -106.0030 277° West 473 544 36,000  Level FlightAware ADS-B
Wed 06:04:14 AM 37.5211 -106.0878 277° West 447 514 36,000  Level Denver Center
Wed 06:05:14 AM 37.5369 -106.2625 277° West 450 518 36,000  Level Denver Center
Wed 06:06:14 AM 37.5514 -106.4133 277° West 453 521 36,000  Level Denver Center
Wed 06:07:14 AM 37.5628 -106.5622 276° West 448 516 36,000  Level Denver Center
Wed 06:08:15 AM 37.5792 -106.7392 277° West 456 525 36,000  Level Denver Center
Wed 06:09:15 AM 37.5925 -106.8906 276° West 456 525 36,000  Level Denver Center
Wed 06:10:15 AM 37.6053 -107.0394 276° West 450 518 36,000  Level Denver Center
Wed 06:11:16 AM 37.6169 -107.1900 276° West 452 520 36,000  Level Denver Center
Wed 06:12:16 AM 37.6314 -107.3675 276° West 454 522 36,000  Level Denver Center
Wed 06:17:42 AM 37.6980 -108.2300 276° West 36,000  Level FlightAware ADS-B
Wed 06:18:18 AM 37.7053 -108.3369 276° West 464 534 36,000  Level Denver Center
Wed 06:19:18 AM 37.7169 -108.4906 276° West 462 532 36,000  Level Denver Center
Wed 06:20:18 AM 37.7267 -108.6417 275° West 456 525 36,000  Level Denver Center
Wed 06:25:57 AM 37.7860 -109.5430 275° West 36,000  Level FlightAware ADS-B
Wed 06:26:20 AM 37.7903 -109.6067 275° West 461 531 36,000  Level Denver Center
Wed 06:27:20 AM 37.7989 -109.7606 274° West 461 531 36,000  Level Denver Center
Wed 06:28:20 AM 37.8089 -109.9150 275° West 461 531 36,000  Level Denver Center
Wed 06:29:21 AM 37.8186 -110.0942 274° West 459 528 36,000  Level Denver Center
Wed 06:30:21 AM 37.8292 -110.2500 275° West 462 532 36,000  Level Denver Center
Wed 06:31:21 AM 37.8483 -110.4036 279° West 463 533 36,000  Level Denver Center
Wed 06:32:21 AM 37.8672 -110.5642 279° West 463 533 36,000  Level Denver Center
Wed 06:33:21 AM 37.8858 -110.7244 278° West 462 532 36,000  Level Denver Center
Wed 06:34:22 AM 37.9044 -110.8864 278° West 465 535 36,000  Level Denver Center
Wed 06:35:22 AM 37.9228 -111.0489 278° West 467 537 36,000  Level Denver Center
Wed 06:36:22 AM 37.9400 -111.2106 278° West 466 536 36,000  Level Denver Center
Wed 06:36:45 AM 37.9472 -111.2761 278° West 468 539 36,000  Level Salt Lake Center
Wed 06:37:46 AM 37.9656 -111.4378 278° West 467 537 36,000  Level Salt Lake Center
Wed 06:38:46 AM 37.9831 -111.5986 278° West 464 534 36,000  Level Salt Lake Center
Wed 06:39:46 AM 38.0006 -111.7592 278° West 463 533 36,000  Level Salt Lake Center
Wed 06:40:46 AM 38.0167 -111.9208 277° West 464 534 36,000  Level Salt Lake Center
Wed 06:41:46 AM 38.0344 -112.0817 278° West 464 534 36,000  Level Salt Lake Center
Wed 06:42:47 AM 38.0519 -112.2422 278° West 464 534 36,000  Level Salt Lake Center
Wed 06:43:47 AM 38.0683 -112.4036 277° West 464 534 36,000  Level Salt Lake Center
Wed 06:44:47 AM 38.0872 -112.5969 277° West 464 534 36,000  Level Salt Lake Center
Wed 06:45:47 AM 38.1028 -112.7581 277° West 464 534 36,000  Level Salt Lake Center
Wed 06:46:48 AM 38.1183 -112.9186 277° West 463 533 36,000  Level Salt Lake Center
Wed 06:47:48 AM 38.1328 -113.0797 277° West 463 533 36,000  Level Salt Lake Center
Wed 06:48:48 AM 38.1475 -113.2400 277° West 462 532 36,000  Level Salt Lake Center
Wed 06:49:48 AM 38.1642 -113.4031 277° West 466 536 36,000  Level Salt Lake Center
Wed 06:50:48 AM 38.1789 -113.5658 277° West 468 539 36,000  Level Salt Lake Center
Wed 06:51:49 AM 38.1928 -113.7275 276° West 464 534 36,000  Level Salt Lake Center
Wed 06:52:49 AM 38.2072 -113.8900 277° West 465 535 36,000  Level Salt Lake Center
Wed 06:53:49 AM 38.2228 -114.0531 277° West 466 536 36,000  Level Salt Lake Center
Wed 06:59:37 AM 38.2120 -115.0130 277° West 36,000  Level FlightAware ADS-B
Wed 07:00:51 AM 38.2000 -115.1981 277° West 463 533 36,000  Level Salt Lake Center
Wed 07:01:51 AM 38.1867 -115.3731 265° West 468 539 36,000  Level Salt Lake Center
Wed 07:02:51 AM 38.1764 -115.5367 265° West 466 536 36,000  Level Salt Lake Center
Wed 07:03:51 AM 38.1650 -115.7022 265° West 468 539 36,000  Level Salt Lake Center
Wed 07:04:51 AM 38.1528 -115.8675 265° West 471 542 36,000  Level Salt Lake Center
Wed 07:05:52 AM 38.1411 -116.0331 265° West 469 540 36,000  Level Salt Lake Center
Wed 07:06:52 AM 38.1292 -116.1964 265° West 468 539 36,000  Level Salt Lake Center
Wed 07:07:52 AM 38.1167 -116.3606 265° West 467 537 36,000  Level Salt Lake Center
Wed 07:08:58 AM 38.1050 -116.5261 265° West 468 539 36,000  Level Oakland Center
Wed 07:09:53 AM 38.0917 -116.6919 264° West 471 542 36,000  Level Salt Lake Center
Wed 07:10:53 AM 38.0772 -116.8553 264° West 469 540 36,000  Level Salt Lake Center
Wed 07:11:53 AM 38.0622 -117.0178 263° West 463 533 36,000  Level Salt Lake Center
Wed 07:12:53 AM 38.0472 -117.1839 264° West 461 531 36,000  Level Salt Lake Center
Wed 07:13:54 AM 38.0314 -117.3481 263° West 456 525 36,000  Level Salt Lake Center
Wed 07:14:54 AM 38.0189 -117.4769 263° West 456 525 36,000  Level Salt Lake Center
Wed 07:15:54 AM 38.0031 -117.6386 263° West 459 528 36,000  Level Salt Lake Center
Wed 07:16:54 AM 37.9875 -117.7994 263° West 460 529 36,000 -1,008 Level Salt Lake Center
Wed 07:22:12 AM 37.8970 -118.6700 263° West 36,000 -1,038 Level FlightAware ADS-B
Wed 07:24:17 AM 37.8610 -119.0020 262° West 36,000 -1,237 Level FlightAware ADS-B
Wed 07:25:02 AM 37.8470 -119.1270 262° West 36,000 -1,337 Level FlightAware ADS-B
Wed 07:25:42 AM 37.8340 -119.2400 262° West 36,000 -1,378 Level FlightAware ADS-B
Wed 07:26:22 AM 37.8230 -119.3380 262° West 36,000 -1,415 Level FlightAware ADS-B
Wed 07:27:07 AM 37.8080 -119.4710 262° West 36,000 -1,455 Level FlightAware ADS-B
Wed 07:27:47 AM 37.7950 -119.5820 262° West 36,000 -1,503 Level FlightAware ADS-B
Wed 07:28:27 AM 37.7830 -119.6840 262° West 36,000 -1,549 Level FlightAware ADS-B
Wed 07:29:27 AM 37.7640 -119.8500 262° West 36,000 -1,597 Level FlightAware ADS-B
Wed 07:30:02 AM 37.7530 -119.9400 261° West 36,000 -1,675 Level FlightAware ADS-B
Wed 07:30:52 AM 37.7380 -120.0670 262° West 36,000 -1,724 Level FlightAware ADS-B
Wed 07:31:32 AM 37.7250 -120.1720 261° West 36,000 -1,799 Level FlightAware ADS-B
Wed 07:32:17 AM 37.7100 -120.2970 261° West 35,200 -1,864 Descending FlightAware ADS-B
Wed 07:32:57 AM 37.6970 -120.4060 261° West 33,000 -1,898 Descending FlightAware ADS-B
Wed 07:33:37 AM 37.6840 -120.5070 261° West 30,900 -1,843 Descending FlightAware ADS-B
Wed 07:34:22 AM 37.6710 -120.6290 262° West 27,700 -1,790 Descending FlightAware ADS-B
Wed 07:35:07 AM 37.6580 -120.7500 262° West 25,100 -1,670 Descending FlightAware ADS-B
Wed 07:35:47 AM 37.6480 -120.8470 263° West 23,300 -1,579 Descending FlightAware ADS-B
Wed 07:36:27 AM 37.6360 -120.9530 262° West 20,900 -1,527 Descending FlightAware ADS-B
Wed 07:37:12 AM 37.6250 -121.0540 262° West 19,200 -1,424 Descending FlightAware ADS-B
Wed 07:37:52 AM 37.6130 -121.1570 262° West 16,800 -1,374 Descending FlightAware ADS-B
Wed 07:38:32 AM 37.6030 -121.2470 262° West 14,900 -1,251 Descending FlightAware ADS-B
Wed 07:39:17 AM 37.5910 -121.3520 262° West 12,700 -1,158 Descending FlightAware ADS-B
Wed 07:39:57 AM 37.5810 -121.4380 262° West 11,400 -1,033 Descending FlightAware ADS-B
Wed 07:40:52 AM 37.5690 -121.5460 262° West 10,500 -972 Descending FlightAware ADS-B
Wed 07:41:37 AM 37.5600 -121.6260 262° West 9,700 -971 Descending FlightAware ADS-B
Wed 07:42:02 AM 37.5550 -121.6680 261° West 9,000 -962 Descending FlightAware ADS-B
Wed 07:42:32 AM 37.5490 -121.7160 261° West 8,300 -924 Descending FlightAware ADS-B
Wed 07:43:02 AM 37.5430 -121.7650 261° West 7,900 -892 Descending FlightAware ADS-B
Wed 07:43:27 AM 37.5380 -121.8020 260° West 7,900 -899 Level FlightAware ADS-B
Wed 07:43:57 AM 37.5330 -121.8460 262° West 7,900 -956 Level FlightAware ADS-B
Wed 07:44:07 AM 37.5310 -121.8640 262° West 7,600 -1,036 Descending FlightAware ADS-B
Wed 07:44:37 AM 37.5260 -121.9110 262° West 6,600 -1,014 Descending FlightAware ADS-B
Wed 07:45:07 AM 37.5210 -121.9540 262° West 6,000 -922 Descending FlightAware ADS-B
Wed 07:45:32 AM 37.5160 -121.9930 261° West 5,700 -893 Descending FlightAware ADS-B
Wed 07:46:02 AM 37.5130 -122.0330 265° West 4,900 -909 Descending FlightAware ADS-B
Wed 07:46:32 AM 37.5110 -122.0720 266° West 4,000 -821 Descending FlightAware ADS-B
Wed 07:46:57 AM 37.5100 -122.1030 268° West 3,500 -676 Descending FlightAware ADS-B
Wed 07:47:27 AM 37.5200 -122.1360 291° West 3,200 -603 Descending FlightAware ADS-B
Wed 07:47:57 AM 37.5320 -122.1640 298° West 2,700 -604 Descending FlightAware ADS-B
Wed 07:48:22 AM 37.5420 -122.1880 298° West 2,400 -504 Descending FlightAware ADS-B
Wed 07:48:52 AM 37.5520 -122.2120 298° West 2,300 -447 Descending FlightAware ADS-B
Wed 07:49:56 AM 37.5667 -122.2667 298° West 136 157 1,700 -581 Descending Northern Cal TRACON
Wed 07:50:56 AM 37.5833 -122.3000 302° West 127 146 1,100 -700 Descending Northern Cal TRACON
Wed 07:51:56 AM 37.6000 -122.3500 293° West 124 143 300 -462 Descending Northern Cal TRACON
Wed 07:53:06 AM 37.6247 -122.3822 314° West 129 148 100 -171 Descending Oakland Center
Wed 07:55:00 AM 37.6167 -122.3667 322° Northwest  Level FlightAware Approximate

Login

Don't have an account? Register now (free) for customized features, flight alerts, and more!